Time,TemperatureF,DewpointF,PressureIn,WindDirection,WindDirectionDegrees,WindSpeedMPH,WindSpeedGustMPH,Humidity,HourlyPrecipIn,Conditions,Clouds,dailyrainin,SoftwareType,DateUTC
2013-01-15 00:03:00,31.8,26.6,30.41,SW,220,0.0,1.0,81,0.00,,,0.00,WUHU216DAVISVP2,2013-01-15 08:03:00,
2013-01-15 00:08:00,31.8,26.6,30.41,SW,220,0.0,1.0,81,0.00,,,0.00,WUHU216DAVISVP2,2013-01-15 08:08:00,
2013-01-15 00:13:00,32.0,27.1,30.41,SW,220,0.0,0.0,82,0.00,,,0.00,WUHU216DAVISVP2,2013-01-15 08:13:00,
2013-01-15 00:18:00,32.2,27.0,30.41,SW,220,0.0,1.0,81,0.00,,,0.00,WUHU216DAVISVP2,2013-01-15 08:18:00,
2013-01-15 00:23:00,32.5,27.3,30.41,SW,220,0.0,1.0,81,0.00,,,0.00,WUHU216DAVISVP2,2013-01-15 08:23:00,
2013-01-15 00:28:00,32.6,27.4,30.41,SW,220,0.0,1.0,81,0.00,,,0.00,WUHU216DAVISVP2,2013-01-15 08:28:00,
2013-01-15 00:33:00,32.8,27.6,30.41,SW,220,0.0,1.0,81,0.00,,,0.00,WUHU216DAVISVP2,2013-01-15 08:33:00,
2013-01-15 00:38:00,32.6,27.1,30.40,SW,220,0.0,0.0,80,0.00,,,0.00,WUHU216DAVISVP2,2013-01-15 08:38:00,
2013-01-15 00:43:00,32.3,26.5,30.40,SW,220,0.0,0.0,79,0.00,,,0.00,WUHU216DAVISVP2,2013-01-15 08:43:00,
2013-01-15 00:48:00,31.9,26.1,30.41,SW,220,0.0,0.0,79,0.00,,,0.00,WUHU216DAVISVP2,2013-01-15 08:48:00,
2013-01-15 00:53:00,31.4,26.0,30.41,SW,220,0.0,0.0,80,0.00,,,0.00,WUHU216DAVISVP2,2013-01-15 08:53:00,
2013-01-15 00:58:00,31.1,26.2,30.42,SW,220,0.0,0.0,82,0.00,,,0.00,WUHU216DAVISVP2,2013-01-15 08:58:00,
2013-01-15 01:03:00,31.1,26.5,30.42,SW,220,0.0,1.0,83,0.00,,,0.00,WUHU216DAVISVP2,2013-01-15 09:03:00,
2013-01-15 01:08:00,31.1,26.8,30.42,SW,220,0.0,1.0,84,0.00,,,0.00,WUHU216DAVISVP2,2013-01-15 09:08:00,
2013-01-15 01:13:00,31.2,26.9,30.41,SW,220,0.0,1.0,84,0.00,,,0.00,WUHU216DAVISVP2,2013-01-15 09:13:00,
2013-01-15 01:18:00,31.2,26.9,30.42,SW,220,0.0,1.0,84,0.00,,,0.00,WUHU216DAVISVP2,2013-01-15 09:18:00,
2013-01-15 01:23:00,31.2,26.9,30.42,SW,220,0.0,0.0,84,0.00,,,0.00,WUHU216DAVISVP2,2013-01-15 09:23:00,
2013-01-15 01:28:00,31.1,26.8,30.42,SW,220,0.0,0.0,84,0.00,,,0.00,WUHU216DAVISVP2,2013-01-15 09:28:00,
2013-01-15 01:33:00,31.1,26.8,30.42,SW,220,0.0,0.0,84,0.00,,,0.00,WUHU216DAVISVP2,2013-01-15 09:33:00,
2013-01-15 01:38:00,31.1,26.8,30.43,SW,220,0.0,0.0,84,0.00,,,0.00,WUHU216DAVISVP2,2013-01-15 09:38:00,
2013-01-15 01:43:00,31.0,26.7,30.43,SW,220,0.0,0.0,84,0.00,,,0.00,WUHU216DAVISVP2,2013-01-15 09:43:00,
2013-01-15 01:48:00,30.7,26.7,30.43,SW,220,0.0,0.0,85,0.00,,,0.00,WUHU216DAVISVP2,2013-01-15 09:48:00,
2013-01-15 01:53:00,30.7,26.7,30.43,SW,219,0.0,2.0,85,0.00,,,0.00,WUHU216DAVISVP2,2013-01-15 09:53:00,
2013-01-15 01:58:00,30.7,27.0,30.43,SW,219,0.0,2.0,86,0.00,,,0.00,WUHU216DAVISVP2,2013-01-15 09:58:00,
2013-01-15 02:03:00,30.8,27.1,30.43,SW,219,0.0,2.0,86,0.00,,,0.00,WUHU216DAVISVP2,2013-01-15 10:03:00,
2013-01-15 02:08:00,30.9,27.2,30.43,SW,219,0.0,2.0,86,0.00,,,0.00,WUHU216DAVISVP2,2013-01-15 10:08:00,
2013-01-15 02:13:00,30.9,28.8,30.43,SW,218,1.0,2.0,92,0.00,,,0.00,WUHU216DAVISVP2,2013-01-15 10:13:00,
2013-01-15 02:18:00,31.2,27.5,30.44,SW,218,0.0,2.0,86,0.00,,,0.00,WUHU216DAVISVP2,2013-01-15 10:18:00,
2013-01-15 02:23:00,31.4,27.7,30.44,SW,218,0.0,2.0,86,0.00,,,0.00,WUHU216DAVISVP2,2013-01-15 10:23:00,
2013-01-15 02:28:00,31.5,27.5,30.44,SW,218,0.0,2.0,85,0.00,,,0.00,WUHU216DAVISVP2,2013-01-15 10:28:00,
2013-01-15 02:33:00,31.7,28.0,30.43,SW,218,0.0,1.0,86,0.00,,,0.00,WUHU216DAVISVP2,2013-01-15 10:33:00,
2013-01-15 02:38:00,31.9,27.9,30.44,SW,218,0.0,1.0,85,0.00,,,0.00,WUHU216DAVISVP2,2013-01-15 10:38:00,
2013-01-15 02:43:00,32.0,28.0,30.44,SW,218,0.0,1.0,85,0.00,,,0.00,WUHU216DAVISVP2,2013-01-15 10:43:00,
2013-01-15 02:48:00,32.0,27.7,30.44,SW,218,0.0,1.0,84,0.00,,,0.00,WUHU216DAVISVP2,2013-01-15 10:48:00,
2013-01-15 02:53:00,31.9,27.6,30.44,SW,218,0.0,0.0,84,0.00,,,0.00,WUHU216DAVISVP2,2013-01-15 10:53:00,
2013-01-15 02:58:00,31.7,27.4,30.44,SW,218,0.0,0.0,84,0.00,,,0.00,WUHU216DAVISVP2,2013-01-15 10:58:00,
2013-01-15 03:03:00,31.6,27.3,30.44,SW,218,0.0,0.0,84,0.00,,,0.00,WUHU216DAVISVP2,2013-01-15 11:03:00,
2013-01-15 03:08:00,31.5,27.2,30.44,SW,218,0.0,0.0,84,0.00,,,0.00,WUHU216DAVISVP2,2013-01-15 11:08:00,
2013-01-15 03:13:00,31.4,27.4,30.44,SW,218,0.0,0.0,85,0.00,,,0.00,WUHU216DAVISVP2,2013-01-15 11:13:00,
2013-01-15 03:18:00,31.4,27.4,30.45,SW,218,0.0,0.0,85,0.00,,,0.00,WUHU216DAVISVP2,2013-01-15 11:18:00,
2013-01-15 03:23:00,31.3,27.3,30.44,SW,218,0.0,0.0,85,0.00,,,0.00,WUHU216DAVISVP2,2013-01-15 11:23:00,
2013-01-15 03:28:00,31.2,27.2,30.44,SW,218,0.0,0.0,85,0.00,,,0.00,WUHU216DAVISVP2,2013-01-15 11:28:00,
2013-01-15 03:33:00,31.1,27.1,30.44,SW,218,0.0,0.0,85,0.00,,,0.00,WUHU216DAVISVP2,2013-01-15 11:33:00,
2013-01-15 03:38:00,31.0,27.0,30.44,SW,218,0.0,0.0,85,0.00,,,0.00,WUHU216DAVISVP2,2013-01-15 11:38:00,
2013-01-15 03:43:00,31.0,27.0,30.45,SW,218,0.0,1.0,85,0.00,,,0.00,WUHU216DAVISVP2,2013-01-15 11:43:00,
2013-01-15 03:48:00,31.0,27.3,30.44,SW,218,0.0,1.0,86,0.00,,,0.00,WUHU216DAVISVP2,2013-01-15 11:48:00,
2013-01-15 03:53:00,31.1,27.4,30.44,SW,218,0.0,1.0,86,0.00,,,0.00,WUHU216DAVISVP2,2013-01-15 11:53:00,
2013-01-15 03:58:00,31.4,27.7,30.45,East,86,0.0,2.0,86,0.00,,,0.00,WUHU216DAVISVP2,2013-01-15 11:58:00,
2013-01-15 04:03:00,31.5,27.8,30.44,East,90,0.0,2.0,86,0.00,,,0.00,WUHU216DAVISVP2,2013-01-15 12:03:00,
2013-01-15 04:08:00,31.6,27.6,30.44,East,90,0.0,2.0,85,0.00,,,0.00,WUHU216DAVISVP2,2013-01-15 12:08:00,
2013-01-15 04:13:00,31.6,27.6,30.44,East,90,0.0,2.0,85,0.00,,,0.00,WUHU216DAVISVP2,2013-01-15 12:13:00,
2013-01-15 04:18:00,31.5,27.5,30.45,East,90,0.0,0.0,85,0.00,,,0.00,WUHU216DAVISVP2,2013-01-15 12:18:00,
2013-01-15 04:23:00,31.5,27.5,30.44,East,90,0.0,0.0,85,0.00,,,0.00,WUHU216DAVISVP2,2013-01-15 12:23:00,
2013-01-15 04:28:00,31.5,27.5,30.44,East,91,0.0,0.0,85,0.00,,,0.00,WUHU216DAVISVP2,2013-01-15 12:28:00,
2013-01-15 04:33:00,31.5,27.5,30.44,East,91,0.0,0.0,85,0.00,,,0.00,WUHU216DAVISVP2,2013-01-15 12:33:00,
2013-01-15 04:38:00,31.5,27.5,30.44,East,92,0.0,0.0,85,0.00,,,0.00,WUHU216DAVISVP2,2013-01-15 12:38:00,
2013-01-15 04:43:00,31.4,27.4,30.44,East,92,0.0,0.0,85,0.00,,,0.00,WUHU216DAVISVP2,2013-01-15 12:43:00,
2013-01-15 04:48:00,31.4,27.4,30.44,East,92,0.0,0.0,85,0.00,,,0.00,WUHU216DAVISVP2,2013-01-15 12:48:00,
2013-01-15 04:53:00,31.4,27.4,30.44,East,92,0.0,0.0,85,0.00,,,0.00,WUHU216DAVISVP2,2013-01-15 12:53:00,
2013-01-15 04:58:00,31.4,27.4,30.44,East,96,0.0,2.0,85,0.00,,,0.00,WUHU216DAVISVP2,2013-01-15 12:58:00,
2013-01-15 05:03:00,31.5,27.8,30.44,East,99,1.0,3.0,86,0.00,,,0.00,WUHU216DAVISVP2,2013-01-15 13:03:00,
2013-01-15 05:08:00,31.6,27.9,30.44,ESE,105,0.0,3.0,86,0.00,,,0.00,WUHU216DAVISVP2,2013-01-15 13:08:00,
2013-01-15 05:13:00,31.6,27.6,30.44,ESE,105,0.0,3.0,85,0.00,,,0.00,WUHU216DAVISVP2,2013-01-15 13:13:00,
2013-01-15 05:18:00,31.7,27.7,30.44,East,100,0.0,3.0,85,0.00,,,0.00,WUHU216DAVISVP2,2013-01-15 13:18:00,
2013-01-15 05:23:00,31.7,27.7,30.44,East,99,0.0,2.0,85,0.00,,,0.00,WUHU216DAVISVP2,2013-01-15 13:23:00,
2013-01-15 05:28:00,31.6,27.3,30.44,East,99,0.0,2.0,84,0.00,,,0.00,WUHU216DAVISVP2,2013-01-15 13:28:00,
2013-01-15 05:33:00,31.3,26.7,30.44,East,100,0.0,1.0,83,0.00,,,0.00,WUHU216DAVISVP2,2013-01-15 13:33:00,
2013-01-15 05:38:00,31.0,26.7,30.44,ESE,107,0.0,1.0,84,0.00,,,0.00,WUHU216DAVISVP2,2013-01-15 13:38:00,
2013-01-15 05:43:00,30.7,26.4,30.45,ESE,107,0.0,1.0,84,0.00,,,0.00,WUHU216DAVISVP2,2013-01-15 13:43:00,
2013-01-15 05:48:00,30.8,27.1,30.45,ESE,109,0.0,2.0,86,0.00,,,0.00,WUHU216DAVISVP2,2013-01-15 13:48:00,
2013-01-15 05:53:00,31.1,27.4,30.45,ESE,111,0.0,2.0,86,0.00,,,0.00,WUHU216DAVISVP2,2013-01-15 13:53:00,
2013-01-15 05:58:00,31.3,27.6,30.44,ESE,111,0.0,2.0,86,0.00,,,0.00,WUHU216DAVISVP2,2013-01-15 13:58:00,
2013-01-15 06:03:00,31.3,27.6,30.45,ESE,113,0.0,2.0,86,0.00,,,0.00,WUHU216DAVISVP2,2013-01-15 14:03:00,
2013-01-15 06:08:00,31.3,27.3,30.44,ESE,113,0.0,1.0,85,0.00,,,0.00,WUHU216DAVISVP2,2013-01-15 14:08:00,
2013-01-15 06:13:00,31.4,27.7,30.45,ESE,108,1.0,4.0,86,0.00,,,0.00,WUHU216DAVISVP2,2013-01-15 14:13:00,
2013-01-15 06:18:00,31.5,27.8,30.45,ESE,107,0.0,4.0,86,0.00,,,0.00,WUHU216DAVISVP2,2013-01-15 14:18:00,
2013-01-15 06:23:00,31.6,29.5,30.45,ESE,107,0.0,4.0,92,0.00,,,0.00,WUHU216DAVISVP2,2013-01-15 14:23:00,
2013-01-15 06:28:00,31.7,28.0,30.46,ESE,107,0.0,4.0,86,0.00,,,0.00,WUHU216DAVISVP2,2013-01-15 14:28:00,
2013-01-15 06:33:00,31.7,27.7,30.46,ESE,107,0.0,2.0,85,0.00,,,0.00,WUHU216DAVISVP2,2013-01-15 14:33:00,
2013-01-15 06:38:00,31.5,27.8,30.46,ESE,107,0.0,0.0,86,0.00,,,0.00,WUHU216DAVISVP2,2013-01-15 14:38:00,
2013-01-15 06:43:00,31.4,27.7,30.45,ESE,107,0.0,0.0,86,0.00,,,0.00,WUHU216DAVISVP2,2013-01-15 14:43:00,
2013-01-15 06:48:00,31.5,27.8,30.46,ESE,107,0.0,0.0,86,0.00,,,0.00,WUHU216DAVISVP2,2013-01-15 14:48:00,
2013-01-15 06:53:00,31.6,27.9,30.46,ESE,107,0.0,2.0,86,0.00,,,0.00,WUHU216DAVISVP2,2013-01-15 14:53:00,
2013-01-15 06:58:00,31.7,28.0,30.46,ESE,107,0.0,2.0,86,0.00,,,0.00,WUHU216DAVISVP2,2013-01-15 14:58:00,
2013-01-15 07:03:00,31.7,28.0,30.46,ESE,107,0.0,2.0,86,0.00,,,0.00,WUHU216DAVISVP2,2013-01-15 15:03:00,
2013-01-15 07:08:00,31.7,28.0,30.47,ESE,107,0.0,2.0,86,0.00,,,0.00,WUHU216DAVISVP2,2013-01-15 15:08:00,
2013-01-15 07:13:00,31.6,27.9,30.47,ESE,107,0.0,2.0,86,0.00,,,0.00,WUHU216DAVISVP2,2013-01-15 15:13:00,
2013-01-15 07:18:00,31.6,27.9,30.47,ESE,107,0.0,2.0,86,0.00,,,0.00,WUHU216DAVISVP2,2013-01-15 15:18:00,
2013-01-15 07:23:00,31.7,28.2,30.47,ESE,114,0.0,2.0,87,0.00,,,0.00,WUHU216DAVISVP2,2013-01-15 15:23:00,
2013-01-15 07:28:00,31.8,28.3,30.47,ESE,120,0.0,2.0,87,0.00,,,0.00,WUHU216DAVISVP2,2013-01-15 15:28:00,
2013-01-15 07:33:00,31.9,28.4,30.47,ESE,122,0.0,2.0,87,0.00,,,0.00,WUHU216DAVISVP2,2013-01-15 15:33:00,
2013-01-15 07:38:00,31.8,28.1,30.47,ESE,122,0.0,1.0,86,0.00,,,0.00,WUHU216DAVISVP2,2013-01-15 15:38:00,
2013-01-15 07:43:00,31.7,28.0,30.48,ESE,122,0.0,0.0,86,0.00,,,0.00,WUHU216DAVISVP2,2013-01-15 15:43:00,
2013-01-15 07:48:00,31.7,28.0,30.48,ESE,122,0.0,0.0,86,0.00,,,0.00,WUHU216DAVISVP2,2013-01-15 15:48:00,
2013-01-15 07:53:00,31.6,27.9,30.48,ESE,122,0.0,0.0,86,0.00,,,0.00,WUHU216DAVISVP2,2013-01-15 15:53:00,
2013-01-15 07:58:00,31.5,28.0,30.48,ESE,122,0.0,0.0,87,0.00,,,0.00,WUHU216DAVISVP2,2013-01-15 15:58:00,
2013-01-15 08:03:00,31.6,28.4,30.48,ESE,122,0.0,1.0,88,0.00,,,0.00,WUHU216DAVISVP2,2013-01-15 16:03:00,
2013-01-15 08:08:00,31.9,28.7,30.48,ESE,122,1.0,1.0,88,0.00,,,0.00,WUHU216DAVISVP2,2013-01-15 16:08:00,
2013-01-15 08:13:00,32.1,28.9,30.49,ESE,122,0.0,1.0,88,0.00,,,0.00,WUHU216DAVISVP2,2013-01-15 16:13:00,
2013-01-15 08:18:00,32.3,29.1,30.49,ESE,122,0.0,1.0,88,0.00,,,0.00,WUHU216DAVISVP2,2013-01-15 16:18:00,
2013-01-15 08:23:00,32.5,29.0,30.49,ESE,122,0.0,1.0,87,0.00,,,0.00,WUHU216DAVISVP2,2013-01-15 16:23:00,
2013-01-15 08:28:00,32.6,29.1,30.49,ESE,122,0.0,0.0,87,0.00,,,0.00,WUHU216DAVISVP2,2013-01-15 16:28:00,
2013-01-15 08:33:00,32.7,29.2,30.50,ESE,122,0.0,1.0,87,0.00,,,0.00,WUHU216DAVISVP2,2013-01-15 16:33:00,
2013-01-15 08:38:00,32.8,29.3,30.50,ESE,122,0.0,1.0,87,0.00,,,0.00,WUHU216DAVISVP2,2013-01-15 16:38:00,
2013-01-15 08:43:00,33.1,29.6,30.50,SE,132,0.0,2.0,87,0.00,,,0.00,WUHU216DAVISVP2,2013-01-15 16:43:00,
2013-01-15 08:48:00,33.2,29.8,30.50,SE,132,0.0,2.0,87,0.00,,,0.00,WUHU216DAVISVP2,2013-01-15 16:48:00,
2013-01-15 08:53:00,33.5,30.0,30.51,SE,134,0.0,2.0,87,0.00,,,0.00,WUHU216DAVISVP2,2013-01-15 16:53:00,
2013-01-15 08:58:00,33.7,29.9,30.51,SE,134,0.0,2.0,86,0.00,,,0.00,WUHU216DAVISVP2,2013-01-15 16:58:00,
2013-01-15 09:03:00,33.9,30.1,30.51,SE,134,0.0,1.0,86,0.00,,,0.00,WUHU216DAVISVP2,2013-01-15 17:03:00,
2013-01-15 09:08:00,34.1,30.3,30.51,SE,134,0.0,1.0,86,0.00,,,0.00,WUHU216DAVISVP2,2013-01-15 17:08:00,
2013-01-15 09:13:00,34.4,30.6,30.51,SE,134,0.0,0.0,86,0.00,,,0.00,WUHU216DAVISVP2,2013-01-15 17:13:00,
2013-01-15 09:18:00,34.7,30.9,30.51,SE,136,0.0,1.0,86,0.00,,,0.00,WUHU216DAVISVP2,2013-01-15 17:18:00,
2013-01-15 09:23:00,35.1,31.3,30.51,SE,136,0.0,1.0,86,0.00,,,0.00,WUHU216DAVISVP2,2013-01-15 17:23:00,
2013-01-15 09:28:00,35.6,31.5,30.51,SE,136,0.0,1.0,85,0.00,,,0.00,WUHU216DAVISVP2,2013-01-15 17:28:00,
2013-01-15 09:33:00,36.1,31.7,30.51,SE,136,0.0,1.0,84,0.00,,,0.00,WUHU216DAVISVP2,2013-01-15 17:33:00,
2013-01-15 09:38:00,36.6,31.9,30.51,SE,136,0.0,1.0,83,0.00,,,0.00,WUHU216DAVISVP2,2013-01-15 17:38:00,
2013-01-15 09:43:00,36.9,31.9,30.51,SE,144,0.0,1.0,82,0.00,,,0.00,WUHU216DAVISVP2,2013-01-15 17:43:00,
2013-01-15 09:48:00,37.4,32.4,30.51,SE,145,0.0,1.0,82,0.00,,,0.00,WUHU216DAVISVP2,2013-01-15 17:48:00,
2013-01-15 09:53:00,37.9,32.6,30.50,SSE,147,0.0,2.0,81,0.00,,,0.00,WUHU216DAVISVP2,2013-01-15 17:53:00,
2013-01-15 09:58:00,38.3,32.7,30.51,SSE,150,0.0,2.0,80,0.00,,,0.00,WUHU216DAVISVP2,2013-01-15 17:58:00,
2013-01-15 10:03:00,38.7,33.1,30.51,SSE,151,0.0,2.0,80,0.00,,,0.00,WUHU216DAVISVP2,2013-01-15 18:03:00,
2013-01-15 10:08:00,39.2,33.3,30.51,SSE,151,1.0,2.0,79,0.00,,,0.00,WUHU216DAVISVP2,2013-01-15 18:08:00,
2013-01-15 10:13:00,39.5,33.6,30.51,SSE,157,0.0,2.0,79,0.00,,,0.00,WUHU216DAVISVP2,2013-01-15 18:13:00,
2013-01-15 10:18:00,39.9,33.6,30.51,SSE,157,0.0,2.0,78,0.00,,,0.00,WUHU216DAVISVP2,2013-01-15 18:18:00,
2013-01-15 10:23:00,40.4,33.8,30.51,SSE,156,0.0,2.0,77,0.00,,,0.00,WUHU216DAVISVP2,2013-01-15 18:23:00,
2013-01-15 10:28:00,40.8,33.8,30.51,SSE,156,0.0,2.0,76,0.00,,,0.00,WUHU216DAVISVP2,2013-01-15 18:28:00,
2013-01-15 10:33:00,41.3,34.0,30.50,SSE,156,0.0,2.0,75,0.00,,,0.00,WUHU216DAVISVP2,2013-01-15 18:33:00,
2013-01-15 10:38:00,41.7,34.4,30.51,SSE,147,1.0,2.0,75,0.00,,,0.00,WUHU216DAVISVP2,2013-01-15 18:38:00,
2013-01-15 10:43:00,41.9,34.9,30.50,SSE,150,0.0,2.0,76,0.00,,,0.00,WUHU216DAVISVP2,2013-01-15 18:43:00,
2013-01-15 10:48:00,42.0,34.0,30.50,SSE,153,0.0,2.0,73,0.00,,,0.00,WUHU216DAVISVP2,2013-01-15 18:48:00,
2013-01-15 10:53:00,42.0,34.4,30.50,SSE,153,0.0,2.0,74,0.00,,,0.00,WUHU216DAVISVP2,2013-01-15 18:53:00,
2013-01-15 10:58:00,42.1,34.5,30.50,SSE,153,0.0,1.0,74,0.00,,,0.00,WUHU216DAVISVP2,2013-01-15 18:58:00,
2013-01-15 11:03:00,42.3,34.3,30.50,SSE,153,0.0,3.0,73,0.00,,,0.00,WUHU216DAVISVP2,2013-01-15 19:03:00,
2013-01-15 11:08:00,42.5,34.9,30.50,SSE,153,0.0,3.0,74,0.00,,,0.00,WUHU216DAVISVP2,2013-01-15 19:08:00,
2013-01-15 11:13:00,42.9,34.9,30.50,SSW,193,0.0,3.0,73,0.00,,,0.00,WUHU216DAVISVP2,2013-01-15 19:13:00,
2013-01-15 11:18:00,43.2,34.9,30.49,South,186,0.0,3.0,72,0.00,,,0.00,WUHU216DAVISVP2,2013-01-15 19:18:00,
2013-01-15 11:23:00,43.3,35.3,30.49,South,187,0.0,3.0,73,0.00,,,0.00,WUHU216DAVISVP2,2013-01-15 19:23:00,
2013-01-15 11:28:00,43.5,35.5,30.49,SSW,209,0.0,3.0,73,0.00,,,0.00,WUHU216DAVISVP2,2013-01-15 19:28:00,
2013-01-15 11:33:00,43.8,35.4,30.49,South,173,0.0,3.0,72,0.00,,,0.00,WUHU216DAVISVP2,2013-01-15 19:33:00,
2013-01-15 11:38:00,44.2,35.1,30.49,South,175,0.0,3.0,70,0.00,,,0.00,WUHU216DAVISVP2,2013-01-15 19:38:00,
2013-01-15 11:43:00,44.7,36.0,30.49,South,171,0.0,2.0,71,0.00,,,0.00,WUHU216DAVISVP2,2013-01-15 19:43:00,
2013-01-15 11:48:00,45.2,35.4,30.49,SE,132,0.0,4.0,68,0.00,,,0.00,WUHU216DAVISVP2,2013-01-15 19:48:00,
2013-01-15 11:53:00,45.6,35.7,30.49,ENE,64,3.0,4.0,68,0.00,,,0.00,WUHU216DAVISVP2,2013-01-15 19:53:00,
2013-01-15 11:58:00,46.0,36.1,30.48,East,98,0.0,5.0,68,0.00,,,0.00,WUHU216DAVISVP2,2013-01-15 19:58:00,
2013-01-15 12:03:00,46.3,35.7,30.48,NE,54,4.0,6.0,66,0.00,,,0.00,WUHU216DAVISVP2,2013-01-15 20:03:00,
2013-01-15 12:08:00,46.7,35.7,30.48,East,100,3.0,6.0,65,0.00,,,0.00,WUHU216DAVISVP2,2013-01-15 20:08:00,
2013-01-15 12:13:00,46.9,35.1,30.48,East,96,0.0,6.0,63,0.00,,,0.00,WUHU216DAVISVP2,2013-01-15 20:13:00,
2013-01-15 12:18:00,47.0,34.7,30.48,East,91,2.0,6.0,62,0.00,,,0.00,WUHU216DAVISVP2,2013-01-15 20:18:00,
2013-01-15 12:23:00,47.1,34.4,30.48,ENE,61,0.0,5.0,61,0.00,,,0.00,WUHU216DAVISVP2,2013-01-15 20:23:00,
2013-01-15 12:28:00,47.2,34.5,30.48,East,83,2.0,5.0,61,0.00,,,0.00,WUHU216DAVISVP2,2013-01-15 20:28:00,
2013-01-15 12:33:00,47.4,34.3,30.47,ESE,117,0.0,5.0,60,0.00,,,0.00,WUHU216DAVISVP2,2013-01-15 20:33:00,
2013-01-15 12:38:00,47.8,34.2,30.47,South,188,2.0,5.0,59,0.00,,,0.00,WUHU216DAVISVP2,2013-01-15 20:38:00,
2013-01-15 12:43:00,48.3,35.1,30.47,SE,138,1.0,5.0,60,0.00,,,0.00,WUHU216DAVISVP2,2013-01-15 20:43:00,
2013-01-15 12:48:00,48.6,34.6,30.46,ESE,120,0.0,5.0,58,0.00,,,0.00,WUHU216DAVISVP2,2013-01-15 20:48:00,
2013-01-15 12:53:00,48.8,34.3,30.46,SSE,153,0.0,5.0,57,0.00,,,0.00,WUHU216DAVISVP2,2013-01-15 20:53:00,
2013-01-15 12:58:00,49.1,34.1,30.46,ESE,105,0.0,5.0,56,0.00,,,0.00,WUHU216DAVISVP2,2013-01-15 20:58:00,
2013-01-15 13:03:00,49.3,34.3,30.45,East,86,1.0,6.0,56,0.00,,,0.00,WUHU216DAVISVP2,2013-01-15 21:03:00,
2013-01-15 13:08:00,49.5,34.0,30.45,ESE,106,0.0,6.0,55,0.00,,,0.00,WUHU216DAVISVP2,2013-01-15 21:08:00,
2013-01-15 13:13:00,49.7,34.2,30.45,SSE,157,1.0,6.0,55,0.00,,,0.00,WUHU216DAVISVP2,2013-01-15 21:13:00,
2013-01-15 13:18:00,49.9,33.9,30.45,ESE,119,0.0,6.0,54,0.00,,,0.00,WUHU216DAVISVP2,2013-01-15 21:18:00,
2013-01-15 13:23:00,50.0,34.0,30.45,East,90,2.0,5.0,54,0.00,,,0.00,WUHU216DAVISVP2,2013-01-15 21:23:00,
2013-01-15 13:28:00,50.1,33.6,30.45,East,96,0.0,5.0,53,0.00,,,0.00,WUHU216DAVISVP2,2013-01-15 21:28:00,
2013-01-15 13:33:00,50.5,34.0,30.45,East,86,3.0,5.0,53,0.00,,,0.00,WUHU216DAVISVP2,2013-01-15 21:33:00,
2013-01-15 13:38:00,50.7,33.7,30.45,East,101,0.0,5.0,52,0.00,,,0.00,WUHU216DAVISVP2,2013-01-15 21:38:00,
2013-01-15 13:43:00,50.7,33.7,30.45,ENE,59,3.0,5.0,52,0.00,,,0.00,WUHU216DAVISVP2,2013-01-15 21:43:00,
2013-01-15 13:48:00,50.7,32.7,30.44,SE,146,0.0,5.0,50,0.00,,,0.00,WUHU216DAVISVP2,2013-01-15 21:48:00,
2013-01-15 13:53:00,50.9,32.4,30.44,SSE,158,1.0,5.0,49,0.00,,,0.00,WUHU216DAVISVP2,2013-01-15 21:53:00,
2013-01-15 13:58:00,51.3,32.7,30.44,SSE,150,0.0,5.0,49,0.00,,,0.00,WUHU216DAVISVP2,2013-01-15 21:58:00,
2013-01-15 14:03:00,51.6,32.5,30.44,ENE,77,0.0,5.0,48,0.00,,,0.00,WUHU216DAVISVP2,2013-01-15 22:03:00,
2013-01-15 14:08:00,51.5,32.4,30.44,SSE,151,0.0,5.0,48,0.00,,,0.00,WUHU216DAVISVP2,2013-01-15 22:08:00,
2013-01-15 14:13:00,51.8,31.1,30.44,SE,144,0.0,5.0,45,0.00,,,0.00,WUHU216DAVISVP2,2013-01-15 22:13:00,
2013-01-15 14:18:00,52.2,31.4,30.43,SSE,153,2.0,5.0,45,0.00,,,0.00,WUHU216DAVISVP2,2013-01-15 22:18:00,
2013-01-15 14:23:00,52.6,32.3,30.43,ESE,119,1.0,5.0,46,0.00,,,0.00,WUHU216DAVISVP2,2013-01-15 22:23:00,
2013-01-15 14:28:00,52.6,32.3,30.43,SE,146,0.0,5.0,46,0.00,,,0.00,WUHU216DAVISVP2,2013-01-15 22:28:00,
2013-01-15 14:33:00,52.6,31.8,30.43,SSE,159,0.0,5.0,45,0.00,,,0.00,WUHU216DAVISVP2,2013-01-15 22:33:00,
2013-01-15 14:38:00,52.8,32.5,30.44,ENE,72,0.0,5.0,46,0.00,,,0.00,WUHU216DAVISVP2,2013-01-15 22:38:00,
2013-01-15 14:43:00,52.5,31.1,30.44,ENE,76,2.0,5.0,44,0.00,,,0.00,WUHU216DAVISVP2,2013-01-15 22:43:00,
2013-01-15 14:48:00,52.1,31.3,30.44,ENE,76,0.0,5.0,45,0.00,,,0.00,WUHU216DAVISVP2,2013-01-15 22:48:00,
2013-01-15 14:53:00,52.1,30.7,30.44,ENE,76,0.0,4.0,44,0.00,,,0.00,WUHU216DAVISVP2,2013-01-15 22:53:00,
2013-01-15 14:58:00,52.2,31.4,30.43,ENE,77,0.0,4.0,45,0.00,,,0.00,WUHU216DAVISVP2,2013-01-15 22:58:00,
2013-01-15 15:03:00,51.9,30.5,30.44,ENE,77,0.0,3.0,44,0.00,,,0.00,WUHU216DAVISVP2,2013-01-15 23:03:00,
2013-01-15 15:08:00,51.7,30.9,30.44,ENE,78,0.0,3.0,45,0.00,,,0.00,WUHU216DAVISVP2,2013-01-15 23:08:00,
2013-01-15 15:13:00,51.4,31.8,30.43,ENE,78,0.0,3.0,47,0.00,,,0.00,WUHU216DAVISVP2,2013-01-15 23:13:00,
2013-01-15 15:18:00,51.2,31.6,30.43,ENE,78,0.0,2.0,47,0.00,,,0.00,WUHU216DAVISVP2,2013-01-15 23:18:00,
2013-01-15 15:23:00,51.0,31.4,30.43,ENE,78,0.0,2.0,47,0.00,,,0.00,WUHU216DAVISVP2,2013-01-15 23:23:00,
2013-01-15 15:28:00,50.8,30.7,30.43,ENE,78,1.0,2.0,46,0.00,,,0.00,WUHU216DAVISVP2,2013-01-15 23:28:00,
2013-01-15 15:33:00,50.7,31.1,30.43,ENE,78,0.0,2.0,47,0.00,,,0.00,WUHU216DAVISVP2,2013-01-15 23:33:00,
2013-01-15 15:38:00,50.6,31.6,30.43,East,82,0.0,2.0,48,0.00,,,0.00,WUHU216DAVISVP2,2013-01-15 23:38:00,
2013-01-15 15:43:00,50.5,31.5,30.43,East,82,0.0,2.0,48,0.00,,,0.00,WUHU216DAVISVP2,2013-01-15 23:43:00,
2013-01-15 15:48:00,50.4,31.4,30.43,East,82,0.0,0.0,48,0.00,,,0.00,WUHU216DAVISVP2,2013-01-15 23:48:00,
2013-01-15 15:53:00,50.2,31.2,30.43,East,83,0.0,0.0,48,0.00,,,0.00,WUHU216DAVISVP2,2013-01-15 23:53:00,
2013-01-15 15:58:00,50.2,31.2,30.43,East,83,0.0,0.0,48,0.00,,,0.00,WUHU216DAVISVP2,2013-01-15 23:58:00,
2013-01-15 16:03:00,50.1,31.1,30.43,East,83,0.0,0.0,48,0.00,,,0.00,WUHU216DAVISVP2,2013-01-16 00:03:00,
2013-01-15 16:08:00,50.0,31.0,30.43,SW,217,0.0,0.0,48,0.00,,,0.00,WUHU216DAVISVP2,2013-01-16 00:08:00,
2013-01-15 16:13:00,49.8,32.9,30.43,SW,223,0.0,0.0,52,0.00,,,0.00,WUHU216DAVISVP2,2013-01-16 00:13:00,
2013-01-15 16:18:00,49.6,34.1,30.43,SW,223,0.0,0.0,55,0.00,,,0.00,WUHU216DAVISVP2,2013-01-16 00:18:00,
2013-01-15 16:23:00,49.3,33.9,30.43,WSW,244,0.0,2.0,55,0.00,,,0.00,WUHU216DAVISVP2,2013-01-16 00:23:00,
2013-01-15 16:28:00,48.9,33.9,30.43,WSW,244,0.0,2.0,56,0.00,,,0.00,WUHU216DAVISVP2,2013-01-16 00:28:00,
2013-01-15 16:33:00,48.6,34.1,30.43,WSW,246,0.0,2.0,57,0.00,,,0.00,WUHU216DAVISVP2,2013-01-16 00:33:00,
2013-01-15 16:38:00,48.3,33.4,30.43,WSW,246,0.0,2.0,56,0.00,,,0.00,WUHU216DAVISVP2,2013-01-16 00:38:00,
2013-01-15 16:43:00,48.0,33.5,30.43,WSW,246,0.0,2.0,57,0.00,,,0.00,WUHU216DAVISVP2,2013-01-16 00:43:00,
2013-01-15 16:48:00,47.7,33.7,30.43,WSW,246,0.0,2.0,58,0.00,,,0.00,WUHU216DAVISVP2,2013-01-16 00:48:00,
2013-01-15 16:53:00,47.4,33.0,30.43,WSW,246,0.0,1.0,57,0.00,,,0.00,WUHU216DAVISVP2,2013-01-16 00:53:00,
2013-01-15 16:58:00,47.2,33.2,30.43,WSW,246,0.0,1.0,58,0.00,,,0.00,WUHU216DAVISVP2,2013-01-16 00:58:00,
2013-01-15 17:03:00,47.0,33.5,30.43,WSW,246,0.0,1.0,59,0.00,,,0.00,WUHU216DAVISVP2,2013-01-16 01:03:00,
2013-01-15 17:08:00,46.8,33.7,30.43,WSW,246,0.0,1.0,60,0.00,,,0.00,WUHU216DAVISVP2,2013-01-16 01:08:00,
2013-01-15 17:13:00,46.6,34.4,30.43,WSW,246,0.0,0.0,62,0.00,,,0.00,WUHU216DAVISVP2,2013-01-16 01:13:00,
2013-01-15 17:18:00,46.4,34.2,30.43,WSW,246,0.0,0.0,62,0.00,,,0.00,WUHU216DAVISVP2,2013-01-16 01:18:00,
2013-01-15 17:23:00,46.2,34.0,30.43,WSW,246,0.0,1.0,62,0.00,,,0.00,WUHU216DAVISVP2,2013-01-16 01:23:00,
2013-01-15 17:28:00,46.0,34.2,30.43,WSW,246,0.0,1.0,63,0.00,,,0.00,WUHU216DAVISVP2,2013-01-16 01:28:00,
2013-01-15 17:33:00,45.9,34.0,30.43,WSW,246,0.0,1.0,63,0.00,,,0.00,WUHU216DAVISVP2,2013-01-16 01:33:00,
2013-01-15 17:38:00,45.8,34.0,30.44,WSW,246,0.0,1.0,63,0.00,,,0.00,WUHU216DAVISVP2,2013-01-16 01:38:00,
2013-01-15 17:43:00,45.6,33.7,30.43,WSW,246,0.0,0.0,63,0.00,,,0.00,WUHU216DAVISVP2,2013-01-16 01:43:00,
2013-01-15 17:48:00,45.5,34.5,30.44,WSW,246,0.0,0.0,65,0.00,,,0.00,WUHU216DAVISVP2,2013-01-16 01:48:00,
2013-01-15 17:53:00,45.3,35.1,30.43,WSW,246,0.0,0.0,67,0.00,,,0.00,WUHU216DAVISVP2,2013-01-16 01:53:00,
2013-01-15 17:58:00,45.0,34.8,30.43,WSW,246,0.0,0.0,67,0.00,,,0.00,WUHU216DAVISVP2,2013-01-16 01:58:00,
2013-01-15 18:03:00,44.8,33.8,30.43,WSW,246,0.0,0.0,65,0.00,,,0.00,WUHU216DAVISVP2,2013-01-16 02:03:00,
2013-01-15 18:08:00,44.5,33.2,30.43,WSW,246,0.0,0.0,64,0.00,,,0.00,WUHU216DAVISVP2,2013-01-16 02:08:00,
2013-01-15 18:13:00,44.4,33.8,30.43,WSW,246,0.0,0.0,66,0.00,,,0.00,WUHU216DAVISVP2,2013-01-16 02:13:00,
2013-01-15 18:18:00,44.2,34.0,30.43,WSW,246,0.0,0.0,67,0.00,,,0.00,WUHU216DAVISVP2,2013-01-16 02:18:00,
2013-01-15 18:23:00,43.9,34.1,30.43,WSW,246,0.0,0.0,68,0.00,,,0.00,WUHU216DAVISVP2,2013-01-16 02:23:00,
2013-01-15 18:28:00,43.6,34.2,30.43,WSW,246,0.0,0.0,69,0.00,,,0.00,WUHU216DAVISVP2,2013-01-16 02:28:00,
2013-01-15 18:33:00,43.3,33.9,30.43,WSW,246,0.0,0.0,69,0.00,,,0.00,WUHU216DAVISVP2,2013-01-16 02:33:00,
2013-01-15 18:38:00,43.0,34.0,30.43,WSW,246,0.0,0.0,70,0.00,,,0.00,WUHU216DAVISVP2,2013-01-16 02:38:00,
2013-01-15 18:43:00,42.7,33.7,30.43,WSW,246,0.0,0.0,70,0.00,,,0.00,WUHU216DAVISVP2,2013-01-16 02:43:00,
2013-01-15 18:48:00,42.3,33.3,30.43,WSW,246,0.0,0.0,70,0.00,,,0.00,WUHU216DAVISVP2,2013-01-16 02:48:00,
2013-01-15 18:53:00,41.6,32.6,30.43,WSW,246,0.0,0.0,70,0.00,,,0.00,WUHU216DAVISVP2,2013-01-16 02:53:00,
2013-01-15 18:58:00,40.8,32.5,30.43,WSW,246,0.0,0.0,72,0.00,,,0.00,WUHU216DAVISVP2,2013-01-16 02:58:00,
2013-01-15 19:03:00,40.2,32.6,30.43,WSW,246,0.0,0.0,74,0.00,,,0.00,WUHU216DAVISVP2,2013-01-16 03:03:00,
2013-01-15 19:08:00,39.7,32.5,30.43,WSW,246,0.0,0.0,75,0.00,,,0.00,WUHU216DAVISVP2,2013-01-16 03:08:00,
2013-01-15 19:13:00,39.4,32.5,30.43,WSW,246,0.0,2.0,76,0.00,,,0.00,WUHU216DAVISVP2,2013-01-16 03:13:00,
2013-01-15 19:18:00,39.1,32.5,30.43,WSW,246,0.0,2.0,77,0.00,,,0.00,WUHU216DAVISVP2,2013-01-16 03:18:00,
2013-01-15 19:23:00,38.9,32.3,30.43,WSW,246,0.0,2.0,77,0.00,,,0.00,WUHU216DAVISVP2,2013-01-16 03:23:00,
2013-01-15 19:28:00,38.8,32.2,30.44,WSW,246,0.0,2.0,77,0.00,,,0.00,WUHU216DAVISVP2,2013-01-16 03:28:00,
2013-01-15 19:33:00,38.7,32.1,30.43,WSW,246,0.0,0.0,77,0.00,,,0.00,WUHU216DAVISVP2,2013-01-16 03:33:00,
2013-01-15 19:38:00,38.6,32.1,30.43,WSW,246,0.0,0.0,77,0.00,,,0.00,WUHU216DAVISVP2,2013-01-16 03:38:00,
2013-01-15 19:43:00,38.7,31.5,30.44,WSW,246,0.0,0.0,75,0.00,,,0.00,WUHU216DAVISVP2,2013-01-16 03:43:00,
2013-01-15 19:48:00,38.9,31.3,30.44,WSW,246,3.0,3.0,74,0.00,,,0.00,WUHU216DAVISVP2,2013-01-16 03:48:00,
2013-01-15 19:53:00,39.2,32.0,30.44,WSW,246,0.0,3.0,75,0.00,,,0.00,WUHU216DAVISVP2,2013-01-16 03:53:00,
2013-01-15 19:58:00,39.5,32.3,30.43,WSW,246,0.0,3.0,75,0.00,,,0.00,WUHU216DAVISVP2,2013-01-16 03:58:00,
2013-01-15 20:03:00,39.5,32.0,30.44,WSW,246,0.0,3.0,74,0.00,,,0.00,WUHU216DAVISVP2,2013-01-16 04:03:00,
2013-01-15 20:08:00,39.5,32.2,30.44,WSW,246,0.0,1.0,75,0.00,,,0.00,WUHU216DAVISVP2,2013-01-16 04:08:00,
2013-01-15 20:13:00,39.7,32.8,30.44,WSW,246,0.0,1.0,76,0.00,,,0.00,WUHU216DAVISVP2,2013-01-16 04:13:00,
2013-01-15 20:18:00,39.9,33.0,30.44,WSW,246,0.0,2.0,76,0.00,,,0.00,WUHU216DAVISVP2,2013-01-16 04:18:00,
2013-01-15 20:23:00,39.7,32.8,30.44,WSW,246,0.0,2.0,76,0.00,,,0.00,WUHU216DAVISVP2,2013-01-16 04:23:00,
2013-01-15 20:28:00,39.3,32.7,30.44,WSW,245,0.0,2.0,77,0.00,,,0.00,WUHU216DAVISVP2,2013-01-16 04:28:00,
2013-01-15 20:33:00,38.9,32.3,30.44,WSW,245,0.0,2.0,77,0.00,,,0.00,WUHU216DAVISVP2,2013-01-16 04:33:00,
2013-01-15 20:38:00,38.5,32.0,30.44,WSW,245,0.0,2.0,77,0.00,,,0.00,WUHU216DAVISVP2,2013-01-16 04:38:00,
2013-01-15 20:43:00,38.2,31.7,30.43,WSW,245,0.0,2.0,77,0.00,,,0.00,WUHU216DAVISVP2,2013-01-16 04:43:00,
2013-01-15 20:48:00,37.9,31.7,30.43,WSW,245,0.0,2.0,78,0.00,,,0.00,WUHU216DAVISVP2,2013-01-16 04:48:00,
2013-01-15 20:53:00,37.7,31.8,30.44,WSW,245,0.0,2.0,79,0.00,,,0.00,WUHU216DAVISVP2,2013-01-16 04:53:00,
2013-01-15 20:58:00,37.6,32.0,30.44,WSW,244,0.0,1.0,80,0.00,,,0.00,WUHU216DAVISVP2,2013-01-16 04:58:00,
2013-01-15 21:00:00,37.5,31.9,30.44,WSW,244,0.0,1.0,80,0.00,,,0.00,WUHU216DAVISVP2,2013-01-16 05:00:00,
2013-01-15 21:01:00,37.5,31.9,30.44,WSW,244,0.0,1.0,80,0.00,,,0.00,WUHU216DAVISVP2,2013-01-16 05:01:00,
2013-01-15 21:02:00,37.5,31.9,30.43,WSW,244,0.0,1.0,80,0.00,,,0.00,WUHU216DAVISVP2,2013-01-16 05:02:00,
2013-01-15 21:07:00,37.4,32.1,30.44,SW,236,0.0,1.0,81,0.00,,,0.00,WUHU216DAVISVP2,2013-01-16 05:07:00,
2013-01-15 21:12:00,37.3,32.0,30.43,SW,236,0.0,1.0,81,0.00,,,0.00,WUHU216DAVISVP2,2013-01-16 05:12:00,
2013-01-15 21:17:00,37.1,31.8,30.43,SW,236,0.0,1.0,81,0.00,,,0.00,WUHU216DAVISVP2,2013-01-16 05:17:00,
2013-01-15 21:22:00,36.9,31.6,30.43,SW,236,0.0,0.0,81,0.00,,,0.00,WUHU216DAVISVP2,2013-01-16 05:22:00,
2013-01-15 21:27:00,36.7,31.4,30.44,SW,236,0.0,0.0,81,0.00,,,0.00,WUHU216DAVISVP2,2013-01-16 05:27:00,
2013-01-15 21:32:00,36.5,31.2,30.44,SW,236,0.0,0.0,81,0.00,,,0.00,WUHU216DAVISVP2,2013-01-16 05:32:00,
2013-01-15 21:37:00,36.3,31.3,30.45,SW,236,0.0,0.0,82,0.00,,,0.00,WUHU216DAVISVP2,2013-01-16 05:37:00,
2013-01-15 21:42:00,36.0,31.0,30.44,SW,236,0.0,0.0,82,0.00,,,0.00,WUHU216DAVISVP2,2013-01-16 05:42:00,
2013-01-15 21:47:00,35.7,30.7,30.44,SW,236,0.0,0.0,82,0.00,,,0.00,WUHU216DAVISVP2,2013-01-16 05:47:00,
2013-01-15 21:52:00,35.3,30.7,30.44,SW,236,0.0,0.0,83,0.00,,,0.00,WUHU216DAVISVP2,2013-01-16 05:52:00,
2013-01-15 21:57:00,34.9,30.0,30.44,SW,236,0.0,0.0,82,0.00,,,0.00,WUHU216DAVISVP2,2013-01-16 05:57:00,
2013-01-15 22:02:00,34.6,29.7,30.44,SW,236,0.0,0.0,82,0.00,,,0.00,WUHU216DAVISVP2,2013-01-16 06:02:00,
2013-01-15 22:07:00,34.3,29.7,30.44,SW,236,0.0,0.0,83,0.00,,,0.00,WUHU216DAVISVP2,2013-01-16 06:07:00,
2013-01-15 22:12:00,34.1,29.5,30.44,SW,236,0.0,0.0,83,0.00,,,0.00,WUHU216DAVISVP2,2013-01-16 06:12:00,
2013-01-15 22:17:00,33.8,29.5,30.44,SW,236,0.0,0.0,84,0.00,,,0.00,WUHU216DAVISVP2,2013-01-16 06:17:00,
2013-01-15 22:22:00,33.5,29.2,30.44,SW,236,0.0,0.0,84,0.00,,,0.00,WUHU216DAVISVP2,2013-01-16 06:22:00,
2013-01-15 22:27:00,33.2,29.2,30.44,SW,236,0.0,0.0,85,0.00,,,0.00,WUHU216DAVISVP2,2013-01-16 06:27:00,
2013-01-15 22:32:00,33.1,29.3,30.44,SW,236,0.0,0.0,86,0.00,,,0.00,WUHU216DAVISVP2,2013-01-16 06:32:00,
2013-01-15 22:37:00,33.0,29.5,30.44,SW,236,0.0,0.0,87,0.00,,,0.00,WUHU216DAVISVP2,2013-01-16 06:37:00,
2013-01-15 22:42:00,32.9,29.4,30.44,SW,236,0.0,0.0,87,0.00,,,0.00,WUHU216DAVISVP2,2013-01-16 06:42:00,
2013-01-15 22:47:00,32.7,29.3,30.44,SW,236,0.0,0.0,87,0.00,,,0.00,WUHU216DAVISVP2,2013-01-16 06:47:00,
2013-01-15 22:52:00,32.6,29.1,30.44,SW,236,0.0,0.0,87,0.00,,,0.00,WUHU216DAVISVP2,2013-01-16 06:52:00,
2013-01-15 22:57:00,32.5,29.0,30.44,SW,236,0.0,0.0,87,0.00,,,0.00,WUHU216DAVISVP2,2013-01-16 06:57:00,
2013-01-15 23:02:00,32.5,29.0,30.44,SW,236,0.0,0.0,87,0.00,,,0.00,WUHU216DAVISVP2,2013-01-16 07:02:00,
2013-01-15 23:07:00,32.4,28.9,30.44,SW,236,0.0,0.0,87,0.00,,,0.00,WUHU216DAVISVP2,2013-01-16 07:07:00,
2013-01-15 23:12:00,32.4,29.2,30.44,SW,236,0.0,0.0,88,0.00,,,0.00,WUHU216DAVISVP2,2013-01-16 07:12:00,
2013-01-15 23:17:00,32.4,29.2,30.44,SW,236,0.0,0.0,88,0.00,,,0.00,WUHU216DAVISVP2,2013-01-16 07:17:00,
2013-01-15 23:22:00,32.4,29.2,30.44,SW,236,0.0,0.0,88,0.00,,,0.00,WUHU216DAVISVP2,2013-01-16 07:22:00,
2013-01-15 23:27:00,32.6,29.7,30.44,SW,236,0.0,0.0,89,0.00,,,0.00,WUHU216DAVISVP2,2013-01-16 07:27:00,
2013-01-15 23:32:00,32.7,29.8,30.44,SW,236,0.0,0.0,89,0.00,,,0.00,WUHU216DAVISVP2,2013-01-16 07:32:00,
2013-01-15 23:37:00,32.7,29.5,30.44,SW,236,0.0,0.0,88,0.00,,,0.00,WUHU216DAVISVP2,2013-01-16 07:37:00,
2013-01-15 23:42:00,32.6,29.4,30.44,SW,236,0.0,0.0,88,0.00,,,0.00,WUHU216DAVISVP2,2013-01-16 07:42:00,
2013-01-15 23:47:00,32.5,29.3,30.44,SW,236,0.0,0.0,88,0.00,,,0.00,WUHU216DAVISVP2,2013-01-16 07:47:00,
2013-01-15 23:52:00,32.5,29.6,30.44,SW,236,0.0,0.0,89,0.00,,,0.00,WUHU216DAVISVP2,2013-01-16 07:52:00,
2013-01-15 23:57:00,32.5,29.6,30.44,SW,236,0.0,0.0,89,0.00,,,0.00,WUHU216DAVISVP2,2013-01-16 07:57:00,